Matsue, Japan
Current Conditions -  °F | °C
As of 12:00 PM on Monday 24 Nov 2014 (Local Time) from RJOC Reporting Station
Scattered Clouds Scattered Clouds  
Wind Chill: 61°   Ceiling: Unl
Heat Index: 61°   Visibility: 6mi
Dew Point: 50°   Wind: 3mph
Humidity: 68%   Direction: 70°ENE
Pressure: 30.09"   Gusts: NA
Location:  35.46806°N, 133.0484°E
Report Text: RJOC 240300Z 07003KT 9999 FEW020 SCT/// 16/10 Q1019
Loading
Personal Weather Stations






























Interactive Weather Map New forecast layout! Learn more

10-Day Weather Forecast

Advertisements
Track Severe Weather on mobile